Time;durP1;ratioP1;P1;durP2;ratioP2;P2;SDS_P1;SDS_P2;PMS_P1;PMS_P2;Temp;Humidity;BMP_temperature;BMP_pressure;BME280_temperature;BME280_humidity;BME280_pressure;Samples;Min_cycle;Max_cycle;Signal;HPM_P1;HPM_P2
2022/04/13 00:00:34;;;;;;;6.10;5.07;;;8.10;80.60;;;;;;5107489;28;20039;-73
2022/04/13 00:03:01;;;;;;;7.73;6.37;;;8.00;80.40;;;;;;5114536;28;20059;-74
2022/04/13 00:05:28;;;;;;;8.43;6.70;;;8.00;80.70;;;;;;5112416;28;20562;-75
2022/04/13 00:07:55;;;;;;;7.78;6.57;;;8.00;80.80;;;;;;5113513;28;20051;-74
2022/04/13 00:10:23;;;;;;;8.13;6.10;;;8.00;80.90;;;;;;5114094;28;20074;-74
2022/04/13 00:12:50;;;;;;;9.43;6.03;;;8.00;81.10;;;;;;5113917;28;20039;-74
2022/04/13 00:15:16;;;;;;;12.13;7.60;;;8.00;81.00;;;;;;5098328;28;20482;-74
2022/04/13 00:17:43;;;;;;;8.70;7.07;;;7.90;81.30;;;;;;5093997;28;20105;-73
2022/04/13 00:20:11;;;;;;;9.93;6.53;;;8.00;81.10;;;;;;5106042;28;20093;-74
2022/04/13 00:22:38;;;;;;;7.93;5.20;;;7.90;81.30;;;;;;5114571;28;20097;-75
2022/04/13 00:25:05;;;;;;;11.77;6.17;;;7.90;81.70;;;;;;5114150;28;20054;-75
2022/04/13 00:27:33;;;;;;;15.23;6.43;;;7.90;82.10;;;;;;5113274;28;20044;-74
2022/04/13 00:30:00;;;;;;;7.30;5.83;;;7.80;82.20;;;;;;5105649;28;20044;-74
2022/04/13 00:32:27;;;;;;;8.93;5.70;;;7.80;82.50;;;;;;5094003;28;20134;-75
2022/04/13 00:34:54;;;;;;;7.77;5.70;;;7.80;82.70;;;;;;5093477;28;20036;-73
2022/04/13 00:37:21;;;;;;;9.70;6.63;;;7.70;83.10;;;;;;5094797;28;20055;-74
2022/04/13 00:39:47;;;;;;;8.43;6.13;;;7.70;83.50;;;;;;5093865;28;20098;-74
2022/04/13 00:42:16;;;;;;;7.50;5.80;;;7.60;83.80;;;;;;5094434;28;20495;-74
2022/04/13 00:44:44;;;;;;;12.20;7.03;;;7.60;84.10;;;;;;5093381;28;20036;-74
2022/04/13 00:47:12;;;;;;;11.80;6.53;;;7.60;84.20;;;;;;5093636;28;20055;-75
2022/04/13 00:49:39;;;;;;;8.53;6.70;;;7.60;84.50;;;;;;5093821;28;20138;-74
2022/04/13 00:52:07;;;;;;;8.77;5.90;;;7.60;84.80;;;;;;5093408;28;20482;-74
2022/04/13 00:54:35;;;;;;;11.27;6.73;;;7.50;84.70;;;;;;5094303;28;20048;-74
2022/04/13 00:57:07;;;;;;;9.47;6.70;;;7.50;85.20;;;;;;5093617;28;20056;-74
2022/04/13 00:59:37;;;;;;;9.33;6.50;;;7.50;85.30;;;;;;5092833;28;20103;-74
2022/04/13 01:02:07;;;;;;;11.13;7.43;;;7.50;85.80;;;;;;5093009;28;20508;-73
2022/04/13 01:04:35;;;;;;;9.53;6.03;;;7.50;85.90;;;;;;5094367;28;20048;-73
2022/04/13 01:07:02;;;;;;;6.80;5.37;;;7.40;86.10;;;;;;5094461;28;20051;-74
2022/04/13 01:09:30;;;;;;;11.53;7.50;;;7.40;86.60;;;;;;5093451;28;20052;-73
2022/04/13 01:11:57;;;;;;;10.60;6.80;;;7.30;87.30;;;;;;5100091;28;20040;-74
2022/04/13 01:14:24;;;;;;;8.70;6.27;;;7.30;87.30;;;;;;5104413;28;20065;-73
2022/04/13 01:16:50;;;;;;;10.87;6.47;;;7.30;87.70;;;;;;5113726;28;20055;-73
2022/04/13 01:19:18;;;;;;;9.00;6.17;;;7.30;87.60;;;;;;5113556;28;20481;-75
2022/04/13 01:21:47;;;;;;;8.40;6.43;;;7.30;87.80;;;;;;5112986;28;20040;-74
2022/04/13 01:24:16;;;;;;;8.00;6.10;;;7.30;88.30;;;;;;5111535;28;20473;-75
2022/04/13 01:26:43;;;;;;;8.30;6.23;;;7.20;88.60;;;;;;5093194;28;20048;-74
2022/04/13 01:29:10;;;;;;;7.90;6.70;;;7.20;88.90;;;;;;5093209;28;20109;-74
2022/04/13 01:31:37;;;;;;;12.17;6.63;;;7.10;89.10;;;;;;5093230;28;20048;-74
2022/04/13 01:34:04;;;;;;;10.23;5.73;;;7.10;89.90;;;;;;5093212;28;20048;-74
2022/04/13 01:36:33;;;;;;;6.93;6.13;;;7.10;90.00;;;;;;5093934;28;20044;-74
2022/04/13 01:39:00;;;;;;;9.23;5.90;;;7.10;90.20;;;;;;5092937;28;20489;-74
2022/04/13 01:41:28;;;;;;;9.80;6.63;;;7.10;90.30;;;;;;5093051;28;20048;-74
2022/04/13 01:43:54;;;;;;;8.60;6.10;;;7.10;90.40;;;;;;5093482;28;20048;-74
2022/04/13 01:46:21;;;;;;;16.67;7.20;;;7.10;90.40;;;;;;5093936;28;20040;-73
2022/04/13 01:48:48;;;;;;;8.57;6.43;;;7.00;90.50;;;;;;5093064;28;20051;-74
2022/04/13 01:51:17;;;;;;;6.83;6.13;;;7.00;90.60;;;;;;5104407;28;20096;-74
2022/04/13 01:53:43;;;;;;;7.30;5.63;;;7.00;90.90;;;;;;5096102;28;20072;-74
2022/04/13 01:56:10;;;;;;;7.43;6.50;;;7.00;91.10;;;;;;5093981;28;20097;-75
2022/04/13 01:58:38;;;;;;;7.67;6.17;;;6.90;91.30;;;;;;5097141;28;20047;-74
2022/04/13 02:01:06;;;;;;;12.50;7.10;;;6.90;91.50;;;;;;5112429;28;20522;-74
2022/04/13 02:03:33;;;;;;;8.33;6.07;;;6.80;91.80;;;;;;5112844;28;20440;-74
2022/04/13 02:05:59;;;;;;;11.10;6.37;;;6.80;91.80;;;;;;5113521;28;20044;-74
2022/04/13 02:08:27;;;;;;;9.67;8.43;;;6.80;92.00;;;;;;5115047;28;20043;-75
2022/04/13 02:10:53;;;;;;;11.80;6.90;;;6.70;92.30;;;;;;5113646;28;20147;-76
2022/04/13 02:13:21;;;;;;;9.83;6.83;;;6.70;92.40;;;;;;5096441;28;20051;-74
2022/04/13 02:15:49;;;;;;;9.17;7.03;;;6.70;92.40;;;;;;5104520;28;20044;-75
2022/04/13 02:18:16;;;;;;;9.43;6.30;;;6.60;92.70;;;;;;5114655;28;20043;-74
2022/04/13 02:20:43;;;;;;;11.27;7.37;;;6.70;93.00;;;;;;5114547;28;20101;-74
2022/04/13 02:23:09;;;;;;;8.93;6.13;;;6.70;92.90;;;;;;5116775;28;20051;-74
2022/04/13 02:25:36;;;;;;;11.07;7.53;;;6.70;93.10;;;;;;5116151;28;20462;-75
2022/04/13 02:28:03;;;;;;;13.33;6.37;;;6.70;93.00;;;;;;5114792;28;20168;-74
2022/04/13 02:30:29;;;;;;;11.20;6.77;;;6.60;93.30;;;;;;5114240;28;20478;-74
2022/04/13 02:32:58;;;;;;;10.03;7.00;;;6.60;93.60;;;;;;5117753;28;20104;-76
2022/04/13 02:35:25;;;;;;;10.47;7.60;;;6.50;93.80;;;;;;5119197;28;20055;-74
2022/04/13 02:37:51;;;;;;;11.03;7.90;;;6.60;94.00;;;;;;5096619;28;20094;-73
2022/04/13 02:40:19;;;;;;;12.77;7.80;;;6.50;94.00;;;;;;5109190;28;20539;-74
2022/04/13 02:42:46;;;;;;;9.27;6.37;;;6.40;94.20;;;;;;5114343;28;20054;-73
2022/04/13 02:45:13;;;;;;;8.37;7.37;;;6.40;94.50;;;;;;5116094;28;20055;-75
2022/04/13 02:47:39;;;;;;;11.40;6.87;;;6.40;94.60;;;;;;5116239;28;20128;-74
2022/04/13 02:50:09;;;;;;;9.03;6.43;;;6.40;94.70;;;;;;5113910;28;20052;-73
2022/04/13 02:52:35;;;;;;;11.00;6.83;;;6.40;94.80;;;;;;5102141;28;20055;-75
2022/04/13 02:55:02;;;;;;;10.60;6.60;;;6.40;94.80;;;;;;5095702;28;20085;-74
2022/04/13 02:57:29;;;;;;;8.07;6.97;;;6.40;95.40;;;;;;5095636;28;20097;-74
2022/04/13 02:59:56;;;;;;;8.80;6.87;;;6.30;95.30;;;;;;5097210;28;20039;-74
2022/04/13 03:02:22;;;;;;;8.67;6.50;;;6.30;95.60;;;;;;5096516;28;20097;-75
2022/04/13 03:04:49;;;;;;;11.77;7.50;;;6.20;96.00;;;;;;5097089;28;20489;-73
2022/04/13 03:07:18;;;;;;;7.97;6.80;;;6.20;96.10;;;;;;5111103;28;20043;-73
2022/04/13 03:09:45;;;;;;;12.90;6.40;;;6.30;96.00;;;;;;5095525;28;20052;-74
2022/04/13 03:12:13;;;;;;;9.90;6.43;;;6.20;96.30;;;;;;5095412;28;20051;-73
2022/04/13 03:14:41;;;;;;;8.23;6.17;;;6.10;96.70;;;;;;5111267;28;20039;-74
2022/04/13 03:17:08;;;;;;;8.67;6.93;;;6.00;97.20;;;;;;5113292;28;20043;-74
2022/04/13 03:19:35;;;;;;;9.30;6.30;;;6.00;97.50;;;;;;5115549;28;20052;-74
2022/04/13 03:22:01;;;;;;;9.53;6.17;;;6.00;97.40;;;;;;5115736;28;20066;-73
2022/04/13 03:24:29;;;;;;;13.80;6.97;;;6.00;97.40;;;;;;5113429;28;20070;-74
2022/04/13 03:26:57;;;;;;;8.63;6.47;;;6.00;97.60;;;;;;5113631;28;20047;-74
2022/04/13 03:29:24;;;;;;;7.43;6.50;;;6.10;97.50;;;;;;5114585;28;20401;-74
2022/04/13 03:31:50;;;;;;;7.97;6.40;;;6.00;97.70;;;;;;5114834;28;20044;-73
2022/04/13 03:34:20;;;;;;;10.50;7.43;;;6.00;97.90;;;;;;5113366;28;20101;-74
2022/04/13 03:36:47;;;;;;;10.47;6.77;;;6.00;98.00;;;;;;5099274;28;20048;-73
2022/04/13 03:39:14;;;;;;;11.57;7.47;;;6.00;98.20;;;;;;5094922;28;20055;-74
2022/04/13 03:41:42;;;;;;;8.30;5.60;;;6.00;98.40;;;;;;5094945;28;20150;-73
2022/04/13 03:44:09;;;;;;;10.77;7.67;;;5.90;98.50;;;;;;5095538;28;20040;-73
2022/04/13 03:46:36;;;;;;;10.43;7.60;;;5.90;98.60;;;;;;5094695;28;20048;-75
2022/04/13 03:49:03;;;;;;;10.17;7.50;;;5.90;98.80;;;;;;5095579;28;20109;-75
2022/04/13 03:51:30;;;;;;;9.30;6.33;;;5.90;99.00;;;;;;5094842;28;20071;-73
2022/04/13 03:53:56;;;;;;;11.40;5.60;;;6.00;98.90;;;;;;5094511;28;20102;-74
2022/04/13 03:56:23;;;;;;;9.13;7.50;;;5.90;99.20;;;;;;5096040;28;20044;-74
2022/04/13 03:58:51;;;;;;;11.17;7.20;;;5.90;99.30;;;;;;5112165;28;20047;-75
2022/04/13 04:01:18;;;;;;;13.47;7.93;;;5.90;99.30;;;;;;5114806;28;20055;-74
2022/04/13 04:03:45;;;;;;;12.60;8.43;;;5.90;99.60;;;;;;5108989;28;20047;-74
2022/04/13 04:06:12;;;;;;;16.77;10.27;;;5.80;99.80;;;;;;5114818;28;20096;-76
2022/04/13 04:08:38;;;;;;;18.83;9.27;;;5.90;99.80;;;;;;5111525;28;20043;-74
2022/04/13 04:11:05;;;;;;;14.77;7.73;;;5.90;99.50;;;;;;5093978;28;20554;-74
2022/04/13 04:13:32;;;;;;;13.87;8.63;;;5.90;99.60;;;;;;5095271;28;20058;-73
2022/04/13 04:16:00;;;;;;;13.47;8.10;;;5.90;99.50;;;;;;5094173;28;20048;-74
2022/04/13 04:18:27;;;;;;;11.73;7.00;;;5.90;99.40;;;;;;5093979;28;20091;-74
2022/04/13 04:20:54;;;;;;;12.57;6.83;;;6.00;99.40;;;;;;5112875;28;20051;-74
2022/04/13 04:23:21;;;;;;;13.07;8.57;;;6.00;99.50;;;;;;5106237;28;20052;-74
2022/04/13 04:25:48;;;;;;;12.07;7.70;;;6.00;99.40;;;;;;5101950;28;20092;-74
2022/04/13 04:28:15;;;;;;;9.80;7.13;;;6.00;99.40;;;;;;5093998;28;20077;-73
2022/04/13 04:30:42;;;;;;;11.17;6.87;;;6.10;99.40;;;;;;5094447;28;20090;-73
2022/04/13 04:33:12;;;;;;;7.90;6.83;;;6.00;99.50;;;;;;5094076;28;20040;-74
2022/04/13 04:35:40;;;;;;;11.23;7.07;;;6.10;99.40;;;;;;5094745;28;20102;-74
2022/04/13 04:38:07;;;;;;;10.87;6.77;;;6.10;99.40;;;;;;5098689;28;20130;-74
2022/04/13 04:40:33;;;;;;;8.07;6.63;;;6.10;99.30;;;;;;5112366;28;20036;-74
2022/04/13 04:43:00;;;;;;;9.27;6.53;;;6.20;99.60;;;;;;5113892;28;20044;-72
2022/04/13 04:45:27;;;;;;;12.90;7.90;;;6.10;99.50;;;;;;5094684;28;20101;-74
2022/04/13 04:47:56;;;;;;;8.33;7.33;;;6.10;99.90;;;;;;5093581;28;20052;-74
2022/04/13 04:50:24;;;;;;;11.50;7.20;;;6.10;99.90;;;;;;5093540;28;20055;-75
2022/04/13 04:52:51;;;;;;;9.67;6.63;;;6.20;99.70;;;;;;5093751;28;20428;-73
2022/04/13 04:55:18;;;;;;;7.90;7.03;;;6.20;99.70;;;;;;5094526;28;20097;-73
2022/04/13 04:57:47;;;;;;;9.93;7.37;;;6.30;99.70;;;;;;5094465;28;20059;-74
2022/04/13 05:00:17;;;;;;;8.10;6.27;;;6.30;99.70;;;;;;5093330;28;20554;-73
2022/04/13 05:02:44;;;;;;;11.90;7.47;;;6.30;99.80;;;;;;5094355;28;20072;-74
2022/04/13 05:05:13;;;;;;;13.10;7.10;;;6.30;99.80;;;;;;5093396;28;20181;-74
2022/04/13 05:07:41;;;;;;;9.63;6.40;;;6.40;99.70;;;;;;5093947;28;20408;-74
2022/04/13 05:10:08;;;;;;;12.93;7.63;;;6.50;99.50;;;;;;5093393;28;20044;-74
2022/04/13 05:12:43;;;;;;;10.27;7.00;;;6.60;99.10;;;;;;5095257;28;20048;-75
2022/04/13 05:15:10;;;;;;;9.10;6.33;;;6.70;98.90;;;;;;5093760;28;20131;-74
2022/04/13 05:17:37;;;;;;;11.60;6.80;;;6.70;98.60;;;;;;5102623;28;20088;-74
2022/04/13 05:20:06;;;;;;;9.77;6.63;;;6.80;98.50;;;;;;5113892;28;20058;-71
2022/04/13 05:22:33;;;;;;;11.53;7.63;;;6.90;98.40;;;;;;5104144;28;20061;-74
2022/04/13 05:25:05;;;;;;;13.60;8.37;;;6.90;98.10;;;;;;5111749;28;20052;-77
2022/04/13 05:27:31;;;;;;;13.10;8.57;;;7.00;98.10;;;;;;5108611;28;20047;-75
2022/04/13 05:29:58;;;;;;;15.23;7.80;;;7.00;98.30;;;;;;5093614;28;20062;-75
2022/04/13 05:32:25;;;;;;;14.10;7.30;;;7.10;97.40;;;;;;5093126;28;20044;-73
2022/04/13 05:34:58;;;;;;;9.03;6.50;;;7.20;97.10;;;;;;5095384;28;20040;-72
2022/04/13 05:37:25;;;;;;;14.00;8.60;;;7.30;97.00;;;;;;5105508;28;20147;-73
2022/04/13 05:39:52;;;;;;;8.97;6.83;;;7.30;96.60;;;;;;5113472;28;20444;-74
2022/04/13 05:42:23;;;;;;;10.93;7.43;;;7.40;96.50;;;;;;5116418;28;20047;-76
2022/04/13 05:44:50;;;;;;;14.13;7.53;;;7.50;96.30;;;;;;5120420;28;20108;-78
2022/04/13 05:47:17;;;;;;;9.50;7.30;;;7.60;95.80;;;;;;5109800;28;20094;-78
2022/04/13 05:49:43;;;;;;;10.23;7.03;;;7.70;95.70;;;;;;5097335;28;20059;-77
2022/04/13 05:52:11;;;;;;;9.53;6.80;;;7.80;95.60;;;;;;5097724;28;20048;-76
2022/04/13 05:54:37;;;;;;;13.67;6.97;;;7.80;95.30;;;;;;5098153;28;20113;-75
2022/04/13 05:57:04;;;;;;;8.93;6.83;;;7.90;95.00;;;;;;5098366;28;20098;-76
2022/04/13 05:59:32;;;;;;;11.40;7.43;;;8.10;94.70;;;;;;5099185;28;20048;-77
2022/04/13 06:01:59;;;;;;;11.53;7.33;;;8.20;94.40;;;;;;5130300;28;20044;-75
2022/04/13 06:04:26;;;;;;;13.52;7.65;;;8.30;94.00;;;;;;5137752;28;20073;-75
2022/04/13 06:06:54;;;;;;;15.57;8.17;;;8.50;93.60;;;;;;5136898;28;20043;-75
2022/04/13 06:09:21;;;;;;;11.90;7.70;;;8.70;93.10;;;;;;5125980;28;20116;-74
2022/04/13 06:11:47;;;;;;;9.30;6.88;;;8.80;92.70;;;;;;5104050;28;20047;-75
2022/04/13 06:14:14;;;;;;;13.25;7.50;;;9.10;92.40;;;;;;5113883;28;20088;-75
2022/04/13 06:16:42;;;;;;;12.10;7.07;;;9.30;91.70;;;;;;5116556;28;20048;-74
2022/04/13 06:19:09;;;;;;;12.55;6.80;;;9.40;91.30;;;;;;5103711;28;20048;-75
2022/04/13 06:21:35;;;;;;;9.43;7.30;;;9.60;90.70;;;;;;5096450;28;20048;-74
2022/04/13 06:24:02;;;;;;;8.90;6.53;;;9.70;90.30;;;;;;5113527;28;20055;-75
2022/04/13 06:26:29;;;;;;;15.70;7.10;;;10.00;90.00;;;;;;5116061;28;20047;-76
2022/04/13 06:28:56;;;;;;;10.93;7.63;;;10.20;88.70;;;;;;5117385;28;20044;-74
2022/04/13 06:31:22;;;;;;;17.25;7.88;;;10.40;87.70;;;;;;5115709;28;20047;-76
2022/04/13 06:33:52;;;;;;;14.65;6.88;;;10.70;86.50;;;;;;5100028;28;20051;-76
2022/04/13 06:36:18;;;;;;;9.43;6.57;;;10.80;85.60;;;;;;5096748;28;20056;-73
2022/04/13 06:38:45;;;;;;;9.85;7.45;;;10.90;84.60;;;;;;5097282;28;20051;-74
2022/04/13 06:41:12;;;;;;;11.77;7.50;;;11.10;83.60;;;;;;5097067;28;20113;-74
2022/04/13 06:43:39;;;;;;;10.68;7.75;;;11.40;82.80;;;;;;5096035;28;20044;-75
2022/04/13 06:46:07;;;;;;;11.25;6.53;;;11.60;81.30;;;;;;5095885;28;20444;-76
2022/04/13 06:48:34;;;;;;;12.93;8.02;;;11.80;80.80;;;;;;5109752;28;20048;-74
2022/04/13 06:51:03;;;;;;;11.60;6.97;;;12.00;83.20;;;;;;5116307;28;20485;-74
2022/04/13 06:53:29;;;;;;;11.52;6.85;;;12.30;78.80;;;;;;5114965;28;20040;-73
2022/04/13 06:55:56;;;;;;;11.85;7.25;;;12.30;77.70;;;;;;5101429;28;20543;-73
2022/04/13 06:58:23;;;;;;;13.32;6.82;;;12.40;77.50;;;;;;5100280;28;20089;-74
2022/04/13 07:00:50;;;;;;;10.25;6.43;;;12.20;77.50;;;;;;5115120;28;20052;-73
2022/04/13 07:03:17;;;;;;;12.45;6.93;;;12.40;77.00;;;;;;5100873;28;20435;-73
2022/04/13 07:05:44;;;;;;;11.75;7.45;;;12.70;76.60;;;;;;5116026;28;20497;-71
2022/04/13 07:08:12;;;;;;;10.38;6.55;;;13.10;74.80;;;;;;5114254;28;20084;-72
2022/04/13 07:10:39;;;;;;;8.38;5.70;;;13.20;74.10;;;;;;5109573;28;20085;-76
2022/04/13 07:13:07;;;;;;;12.30;7.47;;;13.30;73.10;;;;;;5098236;28;20075;-74
2022/04/13 07:15:34;;;;;;;9.63;6.10;;;13.40;73.10;;;;;;5100369;28;20051;-74
2022/04/13 07:18:00;;;;;;;11.75;7.75;;;13.70;73.00;;;;;;5116985;28;20481;-74
2022/04/13 07:20:27;;;;;;;12.52;6.82;;;13.90;71.90;;;;;;5116856;28;20058;-74
2022/04/13 07:22:54;;;;;;;8.27;6.20;;;13.60;71.00;;;;;;5117789;28;20051;-75
2022/04/13 07:25:23;;;;;;;14.32;7.53;;;13.80;71.10;;;;;;5116764;28;20051;-74
2022/04/13 07:27:50;;;;;;;11.18;6.35;;;14.10;70.40;;;;;;5116328;28;20047;-74
2022/04/13 07:30:18;;;;;;;11.50;7.50;;;14.40;69.40;;;;;;5116820;28;20192;-76
2022/04/13 07:32:45;;;;;;;10.65;7.10;;;14.70;68.60;;;;;;5116036;28;20563;-74
2022/04/13 07:35:13;;;;;;;10.60;6.32;;;14.60;68.40;;;;;;5117953;28;20130;-75
2022/04/13 07:37:40;;;;;;;10.80;7.80;;;14.80;68.10;;;;;;5117433;28;20440;-74
2022/04/13 07:40:09;;;;;;;9.50;6.97;;;15.30;67.50;;;;;;5118102;28;20085;-75
2022/04/13 07:42:37;;;;;;;13.18;7.22;;;15.50;65.50;;;;;;5115120;28;20131;-74
2022/04/13 07:45:04;;;;;;;10.32;6.53;;;15.50;65.20;;;;;;5114841;28;20043;-75
2022/04/13 07:47:31;;;;;;;9.05;6.28;;;15.60;64.50;;;;;;5115372;28;20048;-75
2022/04/13 07:49:58;;;;;;;11.00;6.28;;;16.10;63.90;;;;;;5115307;28;20055;-74
2022/04/13 07:52:25;;;;;;;11.55;6.80;;;16.30;62.20;;;;;;5115295;28;20108;-74
2022/04/13 07:54:52;;;;;;;11.98;6.88;;;16.20;62.10;;;;;;5115284;28;20043;-74
2022/04/13 07:57:18;;;;;;;8.63;5.60;;;16.00;61.90;;;;;;5115244;28;20058;-72
2022/04/13 07:59:46;;;;;;;9.90;5.90;;;16.40;61.90;;;;;;5114575;28;20096;-75
2022/04/13 08:02:14;;;;;;;11.65;7.00;;;16.60;61.00;;;;;;5114575;28;20104;-74
2022/04/13 08:04:41;;;;;;;11.45;7.28;;;16.50;60.70;;;;;;5113600;28;20051;-75
2022/04/13 08:07:08;;;;;;;11.43;6.20;;;16.50;61.60;;;;;;5114713;28;20043;-74
2022/04/13 08:09:36;;;;;;;13.65;6.78;;;16.90;60.00;;;;;;5115109;28;20039;-74
2022/04/13 08:12:04;;;;;;;11.10;7.15;;;17.30;59.30;;;;;;5114738;28;20043;-74
2022/04/13 08:14:31;;;;;;;10.82;7.75;;;17.40;58.90;;;;;;5114655;28;20048;-74
2022/04/13 08:17:03;;;;;;;10.40;7.25;;;17.90;58.60;;;;;;5114629;28;20048;-74
2022/04/13 08:19:30;;;;;;;10.82;6.47;;;17.70;57.40;;;;;;5114454;28;20048;-74
2022/04/13 08:21:57;;;;;;;10.63;6.57;;;17.60;57.30;;;;;;5114625;28;20047;-74
2022/04/13 09:05:58;;;;;;;10.90;6.97;;;18.40;57.40;;;;;;5089964;28;20568;-74
2022/04/13 09:08:26;;;;;;;11.93;7.07;;;18.90;55.90;;;;;;5113663;28;20044;-73
2022/04/13 09:10:54;;;;;;;8.00;6.57;;;18.90;55.20;;;;;;5113557;28;20100;-74
2022/04/13 09:13:24;;;;;;;10.60;7.50;;;18.90;55.30;;;;;;5113596;28;20171;-73
2022/04/13 09:15:51;;;;;;;11.45;6.97;;;18.90;55.20;;;;;;5115281;28;20536;-73
2022/04/13 09:18:17;;;;;;;11.73;7.53;;;19.00;55.10;;;;;;5117874;28;20381;-75
2022/04/13 09:20:44;;;;;;;13.50;6.93;;;19.20;55.00;;;;;;5117721;28;20113;-73
2022/04/13 09:23:14;;;;;;;13.57;7.82;;;19.50;54.80;;;;;;5117853;28;20131;-75
2022/04/13 09:25:41;;;;;;;11.52;6.45;;;19.50;54.30;;;;;;5117447;28;20131;-73
2022/04/13 09:28:08;;;;;;;11.40;6.65;;;19.40;54.20;;;;;;5117574;28;20047;-73
2022/04/13 09:30:36;;;;;;;10.95;6.95;;;19.60;54.70;;;;;;5117670;28;20048;-73
2022/04/13 09:33:03;;;;;;;14.90;7.18;;;19.90;54.00;;;;;;5117799;28;20059;-74
2022/04/13 09:35:32;;;;;;;10.88;6.00;;;20.70;53.10;;;;;;5117755;28;20052;-73
2022/04/13 09:38:02;;;;;;;10.85;6.13;;;21.10;51.40;;;;;;5117668;28;20048;-74
2022/04/13 09:40:34;;;;;;;9.20;6.05;;;21.50;50.50;;;;;;5117574;28;20058;-74
2022/04/13 09:43:09;;;;;;;10.70;6.55;;;21.60;50.20;;;;;;5117533;28;20104;-73
2022/04/13 09:45:37;;;;;;;11.18;6.63;;;21.30;50.30;;;;;;5117480;28;20047;-74
2022/04/13 09:48:08;;;;;;;8.40;6.35;;;22.00;50.10;;;;;;5117117;28;20447;-74
2022/04/13 09:50:36;;;;;;;10.63;6.82;;;22.60;49.40;;;;;;5117443;28;20052;-73
2022/04/13 09:53:05;;;;;;;9.20;6.32;;;22.50;48.30;;;;;;5117456;28;20085;-74
2022/04/13 09:55:34;;;;;;;10.85;6.40;;;22.60;47.90;;;;;;5117229;28;20047;-73
2022/04/13 09:58:09;;;;;;;13.10;7.18;;;23.10;47.70;;;;;;5117156;28;20135;-73
2022/04/13 10:00:37;;;;;;;10.40;7.40;;;23.10;47.30;;;;;;5116968;28;20086;-73
2022/04/13 10:03:09;;;;;;;11.80;6.65;;;23.40;47.50;;;;;;5117383;28;20047;-75
2022/04/13 10:05:36;;;;;;;8.82;6.97;;;23.70;46.80;;;;;;5116492;28;20485;-74
2022/04/13 10:08:03;;;;;;;8.98;6.13;;;23.50;47.00;;;;;;5116504;28;20064;-73
2022/04/13 10:10:30;;;;;;;11.23;6.18;;;23.70;46.90;;;;;;5116881;28;20052;-74
2022/04/13 10:12:58;;;;;;;9.65;6.68;;;24.10;46.80;;;;;;5116863;28;20055;-73
2022/04/13 10:15:25;;;;;;;8.43;6.28;;;24.90;46.30;;;;;;5116662;28;20489;-73
2022/04/13 10:17:58;;;;;;;8.70;5.97;;;25.40;44.80;;;;;;5116853;28;20047;-73
2022/04/13 10:20:28;;;;;;;7.78;6.00;;;25.10;43.80;;;;;;5116682;28;20465;-72
2022/04/13 10:22:59;;;;;;;9.20;6.30;;;25.30;44.40;;;;;;5116814;28;20051;-73
2022/04/13 10:25:27;;;;;;;7.63;5.50;;;25.90;44.40;;;;;;5116384;28;20543;-74
2022/04/13 10:27:55;;;;;;;8.65;6.80;;;26.00;43.40;;;;;;5115970;28;20055;-73
2022/04/13 10:30:28;;;;;;;9.50;6.15;;;26.00;43.90;;;;;;5116412;28;20089;-73
2022/04/13 10:33:00;;;;;;;8.32;6.22;;;25.50;44.50;;;;;;5116868;28;20055;-73
2022/04/13 10:35:27;;;;;;;9.55;6.70;;;25.50;44.40;;;;;;5116554;28;20079;-74
2022/04/13 10:37:55;;;;;;;8.65;5.65;;;25.20;43.70;;;;;;5116297;28;20528;-74
2022/04/13 10:40:23;;;;;;;8.52;6.05;;;24.90;45.00;;;;;;5116612;28;20433;-74
2022/04/13 10:42:52;;;;;;;9.80;6.00;;;24.60;44.70;;;;;;5116112;28;20485;-75
2022/04/13 10:45:19;;;;;;;9.90;6.60;;;24.70;45.20;;;;;;5116553;28;20044;-74
2022/04/13 10:47:54;;;;;;;8.80;6.60;;;24.20;45.40;;;;;;5116323;28;20047;-73
2022/04/13 10:50:30;;;;;;;9.48;6.05;;;23.70;46.40;;;;;;5116052;28;20054;-73
2022/04/13 10:52:59;;;;;;;10.95;7.47;;;23.50;47.90;;;;;;5116356;28;20051;-74
2022/04/13 10:55:29;;;;;;;10.90;7.20;;;23.80;47.50;;;;;;5116160;28;20055;-72
2022/04/13 10:58:03;;;;;;;10.13;6.63;;;24.40;46.70;;;;;;5116201;28;20055;-74
2022/04/13 11:00:32;;;;;;;11.55;7.75;;;24.20;46.60;;;;;;5115744;28;20541;-74
2022/04/13 11:03:03;;;;;;;11.73;6.78;;;23.80;46.40;;;;;;5115768;28;20547;-73
2022/04/13 11:05:31;;;;;;;10.90;7.45;;;24.10;46.80;;;;;;5115728;28;20048;-74
2022/04/13 11:08:13;;;;;;;14.13;7.22;;;24.00;46.50;;;;;;5115426;28;20070;-73
2022/04/13 11:10:41;;;;;;;10.57;6.82;;;23.80;46.70;;;;;;5116237;28;20047;-73
2022/04/13 11:13:08;;;;;;;10.40;6.65;;;23.00;47.30;;;;;;5123171;28;20056;-74
2022/04/13 11:15:40;;;;;;;9.40;6.97;;;22.60;48.20;;;;;;5129014;28;20048;-76
2022/04/13 11:18:12;;;;;;;8.50;5.88;;;22.40;49.30;;;;;;5135770;28;20058;-74
2022/04/13 11:21:07;;;;;;;7.60;5.53;;;22.20;49.30;;;;;;5134194;28;20052;-74
2022/04/13 11:23:49;;;;;;;11.05;6.97;;;22.70;49.00;;;;;;5116079;28;20546;-73
2022/04/13 11:26:16;;;;;;;8.23;5.90;;;23.40;48.30;;;;;;5115736;28;20051;-73
2022/04/13 11:28:43;;;;;;;11.60;6.40;;;24.20;47.80;;;;;;5115499;28;20055;-72
2022/04/13 11:31:12;;;;;;;9.70;6.60;;;24.50;46.40;;;;;;5115458;28;20047;-75
2022/04/13 11:33:50;;;;;;;8.68;6.63;;;24.90;46.10;;;;;;5115514;28;20176;-73
2022/04/13 11:36:20;;;;;;;13.27;7.07;;;24.90;45.80;;;;;;5115196;28;20127;-74
2022/04/13 11:38:50;;;;;;;13.02;7.35;;;25.50;45.80;;;;;;5114066;28;20085;-73
2022/04/13 11:41:18;;;;;;;9.48;6.13;;;26.60;45.40;;;;;;5115392;28;20134;-73
2022/04/13 11:43:45;;;;;;;11.13;7.55;;;27.10;43.00;;;;;;5114808;28;20558;-75
2022/04/13 11:46:36;;;;;;;8.18;6.15;;;26.00;44.50;;;;;;5114982;28;20044;-73
2022/04/13 11:49:04;;;;;;;10.80;6.65;;;25.20;44.00;;;;;;5114994;28;20044;-73
2022/04/13 11:51:33;;;;;;;9.13;6.32;;;24.80;45.40;;;;;;5114941;28;20062;-74
2022/04/13 11:54:09;;;;;;;10.70;6.80;;;25.30;45.30;;;;;;5114907;28;20095;-72
2022/04/13 11:56:37;;;;;;;8.90;6.10;;;25.60;44.70;;;;;;5114684;28;20055;-73
2022/04/13 11:59:04;;;;;;;9.68;6.47;;;25.40;44.70;;;;;;5114389;28;20448;-73
2022/04/13 12:01:33;;;;;;;10.98;6.30;;;25.00;45.00;;;;;;5114595;28;20051;-72
2022/04/13 12:04:03;;;;;;;8.27;5.80;;;25.20;45.60;;;;;;5114941;28;20047;-74
2022/04/13 12:06:32;;;;;;;7.70;5.10;;;25.40;43.60;;;;;;5115203;28;20048;-73
2022/04/13 12:09:00;;;;;;;8.00;4.80;;;25.30;43.60;;;;;;5115153;28;20093;-73
2022/04/13 12:11:40;;;;;;;8.50;5.28;;;26.10;43.90;;;;;;5114350;28;20047;-72
2022/04/13 12:14:07;;;;;;;9.10;6.82;;;25.40;44.10;;;;;;5114527;28;20130;-72
2022/04/13 12:16:37;;;;;;;7.85;6.22;;;26.00;43.10;;;;;;5114459;28;20126;-73
2022/04/13 12:19:06;;;;;;;9.10;6.63;;;27.00;42.70;;;;;;5114420;28;20043;-72
2022/04/13 12:21:36;;;;;;;7.57;5.97;;;26.50;41.90;;;;;;5114242;28;20056;-72
2022/04/13 12:24:05;;;;;;;8.57;5.85;;;26.60;43.00;;;;;;5114344;28;20048;-74
2022/04/13 12:26:34;;;;;;;11.80;7.25;;;25.90;42.60;;;;;;5113900;28;20044;-73
2022/04/13 12:29:01;;;;;;;8.38;5.80;;;25.50;43.30;;;;;;5114157;28;20447;-74
2022/04/13 12:31:28;;;;;;;9.90;5.97;;;25.70;43.70;;;;;;5114212;28;20047;-73
2022/04/13 12:34:01;;;;;;;9.27;6.18;;;26.00;43.10;;;;;;5113937;28;20044;-72
2022/04/13 12:36:27;;;;;;;8.02;5.85;;;26.60;42.80;;;;;;5114404;28;20047;-74
2022/04/13 12:38:58;;;;;;;7.18;5.50;;;25.80;42.40;;;;;;5114190;28;20077;-73
2022/04/13 12:41:29;;;;;;;9.77;5.82;;;26.60;43.00;;;;;;5114116;28;20043;-73
2022/04/13 12:43:58;;;;;;;9.77;6.45;;;27.40;41.30;;;;;;5114396;28;20108;-72
2022/04/13 12:46:28;;;;;;;8.10;5.28;;;28.10;41.20;;;;;;5114124;28;20048;-74
2022/04/13 12:48:56;;;;;;;6.75;5.22;;;27.90;39.90;;;;;;5114151;28;20051;-73
2022/04/13 12:51:24;;;;;;;6.68;5.82;;;27.10;40.30;;;;;;5113642;28;20107;-73
2022/04/13 12:53:55;;;;;;;7.63;5.85;;;26.20;41.30;;;;;;5113613;28;20538;-73
2022/04/13 12:56:24;;;;;;;7.35;5.13;;;26.20;41.70;;;;;;5113755;28;20104;-74
2022/04/13 12:58:51;;;;;;;5.93;4.63;;;26.50;41.50;;;;;;5113912;28;20051;-73
2022/04/13 13:01:23;;;;;;;6.40;4.45;;;26.90;41.10;;;;;;5113999;28;20047;-74
2022/04/13 13:03:50;;;;;;;6.55;4.70;;;27.30;40.40;;;;;;5113845;28;20055;-74
2022/04/13 13:06:17;;;;;;;6.82;4.35;;;27.50;40.90;;;;;;5113368;28;20051;-74
2022/04/13 13:08:58;;;;;;;4.57;4.03;;;27.30;39.80;;;;;;5113620;28;20051;-74
2022/04/13 13:11:27;;;;;;;6.32;4.20;;;25.80;41.10;;;;;;5113862;28;20044;-73
2022/04/13 13:14:08;;;;;;;4.60;4.15;;;25.40;41.50;;;;;;5113751;28;20477;-73
2022/04/13 13:16:36;;;;;;;7.63;4.53;;;24.90;42.20;;;;;;5113492;28;20082;-73
2022/04/13 13:19:19;;;;;;;6.13;4.05;;;24.50;42.60;;;;;;5113616;28;20047;-73
2022/04/13 13:22:09;;;;;;;5.10;3.42;;;24.00;43.10;;;;;;5113549;28;20044;-74
2022/04/13 13:24:38;;;;;;;6.55;4.05;;;23.90;43.80;;;;;;5113647;28;20075;-73
2022/04/13 13:27:05;;;;;;;6.80;3.83;;;24.30;43.40;;;;;;5113559;28;20135;-73
2022/04/13 13:29:32;;;;;;;5.78;3.80;;;24.10;42.90;;;;;;5113543;28;20158;-74
2022/04/13 13:32:10;;;;;;;4.82;3.85;;;24.60;43.10;;;;;;5113713;28;20382;-73
2022/04/13 13:34:37;;;;;;;4.65;3.97;;;25.10;42.50;;;;;;5113448;28;20122;-73